In Rescue
 
Open Full Screen Window  High Contrast Mode
Wind Gusting 00 knots
08
September 21, 2020 11:56 PM EDT
Weather Information
Wind Direction
  170 °
Wind Speed
  08 kt (9 mph)
Wind Gust
  00 kt (0 mph)
Altimeter
30.19 in
Visibility
10 SM
Temperature
16° C
61° F
Dewpoint
06° C
43° F
Humidity
52%
Sky Condition
Clear
VFR

METAR KCVX 220356Z AUTO 17008KT 10SM CLR 16/06 A3019 RMK AO2 T01640057 402160106

FAA Disclaimer: The data displayed is for advisory purposes only and is not to be used for flight planning or operations.